CPX323 Details

Departure: Austin-Bergstrom International Airport (KAUS)
Arrival: Miami International Airport (KMIA)
Route: ILEXY2 ZENZI IAH J86 LEV Q102 BAGGS SSCOT5


Current Weather Information
KAUS 200853Z 00000KT 10SM FEW035 SCT044 SCT200 09/08 A3019 RMK AO2 SLP222 T00940078 58013
KMIA 200853Z 33007KT 10SM BKN004 BKN031 OVC050 18/18 A2995 RMK AO2 RAE02 SLP143 P0000 60000 T01830183 56014